Time;durP1;ratioP1;P1;durP2;ratioP2;P2;SDS_P1;SDS_P2;PMS_P1;PMS_P2;Temp;Humidity;BMP_temperature;BMP_pressure;BME280_temperature;BME280_humidity;BME280_pressure;Samples;Min_cycle;Max_cycle;Signal;HPM_P1;HPM_P2
2022/12/06 00:02:05;;;;;;;;;;;4.30;99.90;;;;;;5074480;28;19909;-88
2022/12/06 00:04:31;;;;;;;;;;;4.30;99.90;;;;;;5074689;28;19918;-89
2022/12/06 00:06:57;;;;;;;;;;;4.30;99.90;;;;;;5075822;28;19915;-88
2022/12/06 00:09:24;;;;;;;;;;;4.20;99.90;;;;;;5074396;28;19916;-88
2022/12/06 00:11:49;;;;;;;;;;;4.20;99.90;;;;;;5075409;28;19912;-88
2022/12/06 00:14:15;;;;;;;;;;;4.10;99.90;;;;;;5074429;28;19909;-88
2022/12/06 00:16:40;;;;;;;;;;;4.10;99.90;;;;;;5074720;28;19915;-88
2022/12/06 00:19:06;;;;;;;;;;;4.10;99.90;;;;;;5074552;28;19909;-87
2022/12/06 00:21:32;;;;;;;;;;;4.10;99.90;;;;;;5075563;28;19908;-87
2022/12/06 00:24:11;;;;;;;;;;;4.20;99.90;;;;;;5074843;28;19908;-87
2022/12/06 00:26:38;;;;;;;;;;;4.20;99.90;;;;;;5074599;28;20003;-87
2022/12/06 00:29:04;;;;;;;;;;;4.00;99.90;;;;;;5074653;28;19909;-87
2022/12/06 00:31:30;;;;;;;;;;;4.00;99.90;;;;;;5074233;28;19913;-87
2022/12/06 00:33:55;;;;;;;;;;;4.00;99.90;;;;;;5074818;28;20381;-87
2022/12/06 00:36:23;;;;;;;;;;;4.00;99.90;;;;;;5074837;28;19912;-88
2022/12/06 00:38:48;;;;;;;;;;;3.80;99.90;;;;;;5075634;28;19909;-88
2022/12/06 00:41:18;;;;;;;;;;;3.80;99.90;;;;;;5074189;28;19909;-87
2022/12/06 00:43:44;;;;;;;;;;;3.80;99.90;;;;;;5074627;28;19909;-88
2022/12/06 00:46:15;;;;;;;;;;;3.90;99.90;;;;;;5075548;28;20328;-87
2022/12/06 00:48:40;;;;;;;;;;;3.80;99.90;;;;;;5074067;28;19909;-88
2022/12/06 00:51:06;;;;;;;;;;;3.70;99.90;;;;;;5073598;28;20440;-88
2022/12/06 00:53:31;;;;;;;;;;;3.60;99.90;;;;;;5073854;28;19920;-88
2022/12/06 00:55:57;;;;;;;;;;;3.60;99.90;;;;;;5073889;28;19909;-88
2022/12/06 00:58:22;;;;;;;;;;;3.60;99.90;;;;;;5073959;28;19908;-88
2022/12/06 01:00:48;;;;;;;;;;;3.50;99.90;;;;;;5073555;28;19915;-88
2022/12/06 01:03:14;;;;;;;;;;;3.60;99.90;;;;;;5073469;28;19909;-88
2022/12/06 01:05:40;;;;;;;;;;;3.70;99.90;;;;;;5074519;28;19908;-88
2022/12/06 01:08:05;;;;;;;;;;;3.70;99.90;;;;;;5073396;28;19917;-87
2022/12/06 01:10:31;;;;;;;;;;;3.70;99.90;;;;;;5074692;28;20298;-88
2022/12/06 01:12:56;;;;;;;;;;;3.70;99.90;;;;;;5074394;28;19915;-88
2022/12/06 01:15:22;;;;;;;;;;;3.80;99.90;;;;;;5074634;28;19915;-88
2022/12/06 01:17:47;;;;;;;;;;;3.80;99.90;;;;;;5073276;28;19909;-89
2022/12/06 01:20:12;;;;;;;;;;;3.70;99.90;;;;;;5074751;28;20357;-88
2022/12/06 01:22:38;;;;;;;;;;;3.80;99.90;;;;;;5073219;28;19909;-88
2022/12/06 01:25:03;;;;;;;;;;;3.80;99.90;;;;;;5073464;28;19908;-87
2022/12/06 01:27:29;;;;;;;;;;;3.80;99.90;;;;;;5074609;28;19909;-87
2022/12/06 01:29:54;;;;;;;;;;;3.90;99.90;;;;;;5073409;28;19919;-87
2022/12/06 01:32:20;;;;;;;;;;;3.80;99.90;;;;;;5073291;28;20328;-87
2022/12/06 01:34:50;;;;;;;;;;;3.90;99.90;;;;;;5073361;28;19909;-87
2022/12/06 01:37:16;;;;;;;;;;;3.90;99.90;;;;;;5073356;28;19909;-87
2022/12/06 01:39:42;;;;;;;;;;;3.90;99.90;;;;;;5074474;28;20277;-87
2022/12/06 01:42:09;;;;;;;;;;;4.00;99.90;;;;;;5073214;28;19909;-88
2022/12/06 01:44:38;;;;;;;;;;;3.90;99.90;;;;;;5073069;28;19915;-88
2022/12/06 01:47:03;;;;;;;;;;;3.90;99.90;;;;;;5073441;28;19909;-87
2022/12/06 01:49:33;;;;;;;;;;;4.00;99.90;;;;;;5073054;28;19915;-87
2022/12/06 01:52:00;;;;;;;;;;;3.90;99.90;;;;;;5072717;28;20484;-87
2022/12/06 01:54:26;;;;;;;;;;;3.90;99.90;;;;;;5072817;28;20324;-87
2022/12/06 01:56:52;;;;;;;;;;;4.00;99.90;;;;;;5072770;28;19919;-87
2022/12/06 01:59:18;;;;;;;;;;;4.00;99.90;;;;;;5071847;28;19909;-87
2022/12/06 02:01:44;;;;;;;;;;;4.00;99.90;;;;;;5072630;28;19947;-88
2022/12/06 02:04:10;;;;;;;;;;;4.10;99.90;;;;;;5072578;28;19963;-87
2022/12/06 02:06:36;;;;;;;;;;;4.10;99.90;;;;;;5072812;28;19913;-88
2022/12/06 02:09:03;;;;;;;;;;;4.10;99.90;;;;;;5072138;28;19990;-87
2022/12/06 02:11:28;;;;;;;;;;;4.00;99.90;;;;;;5072425;28;20262;-87
2022/12/06 02:13:54;;;;;;;;;;;4.00;99.90;;;;;;5072358;28;20002;-87
2022/12/06 02:16:36;;;;;;;;;;;4.00;99.90;;;;;;5071735;28;19914;-88
2022/12/06 02:19:21;;;;;;;;;;;3.90;99.90;;;;;;5072539;28;19912;-88
2022/12/06 02:21:51;;;;;;;;;;;3.90;99.90;;;;;;5072074;28;19908;-87
2022/12/06 02:24:19;;;;;;;;;;;3.90;99.90;;;;;;5072099;28;19957;-86
2022/12/06 02:26:46;;;;;;;;;;;4.00;99.90;;;;;;5072100;28;19909;-87
2022/12/06 02:29:18;;;;;;;;;;;4.00;99.90;;;;;;5073290;28;19916;-87
2022/12/06 02:31:43;;;;;;;;;;;4.00;99.90;;;;;;5071877;28;20114;-87
2022/12/06 02:34:15;;;;;;;;;;;4.10;99.90;;;;;;5072063;28;19915;-87
2022/12/06 02:36:44;;;;;;;;;;;4.10;99.90;;;;;;5072152;28;19909;-87
2022/12/06 02:39:15;;;;;;;;;;;4.10;99.90;;;;;;5072010;28;20001;-87
2022/12/06 02:41:44;;;;;;;;;;;4.00;99.90;;;;;;5071754;28;20006;-87
2022/12/06 02:44:15;;;;;;;;;;;4.10;99.90;;;;;;5072191;28;20276;-87
2022/12/06 02:46:42;;;;;;;;;;;4.20;99.90;;;;;;5071883;28;20396;-87
2022/12/06 02:49:09;;;;;;;;;;;4.10;99.90;;;;;;5071725;28;20399;-87
2022/12/06 02:51:36;;;;;;;;;;;4.00;99.90;;;;;;5071438;28;19913;-87
2022/12/06 02:54:04;;;;;;;;;;;4.10;99.90;;;;;;5071825;28;19919;-87
2022/12/06 02:56:31;;;;;;;;;;;4.20;99.90;;;;;;5072086;28;20325;-87
2022/12/06 02:58:56;;;;;;;;;;;4.20;99.90;;;;;;5071533;28;19915;-87
2022/12/06 03:01:42;;;;;;;;;;;4.20;99.90;;;;;;5071770;28;19908;-86
2022/12/06 03:04:07;;;;;;;;;;;4.20;99.90;;;;;;5070981;28;19931;-87
2022/12/06 03:06:51;;;;;;;;;;;4.20;99.90;;;;;;5071699;28;20413;-87
2022/12/06 03:09:17;;;;;;;;;;;4.20;99.90;;;;;;5110767;22;19924;-86
2022/12/06 03:12:00;;;;;;;;;;;4.20;99.90;;;;;;5072296;28;19920;-87
2022/12/06 03:14:30;;;;;;;;;;;4.30;99.90;;;;;;5071497;28;19909;-86
2022/12/06 03:17:12;;;;;;;;;;;4.20;99.90;;;;;;5072589;28;20003;-87
2022/12/06 03:19:39;;;;;;;;;;;4.30;99.90;;;;;;5071277;28;19908;-86
2022/12/06 03:22:13;;;;;;;;;;;4.40;99.90;;;;;;5071172;28;19912;-86
2022/12/06 03:24:39;;;;;;;;;;;4.40;99.90;;;;;;5072636;28;19913;-86
2022/12/06 03:27:08;;;;;;;;;;;4.40;99.90;;;;;;5071194;28;20373;-86
2022/12/06 03:29:35;;;;;;;;;;;4.40;99.90;;;;;;5075620;28;20289;-87
2022/12/06 03:32:01;;;;;;;;;;;4.40;99.90;;;;;;5076265;28;19955;-87
2022/12/06 03:34:30;;;;;;;;;;;4.40;99.90;;;;;;5076877;28;19994;-86
2022/12/06 03:36:57;;;;;;;;;;;4.50;99.90;;;;;;5075405;28;19999;-86
2022/12/06 03:39:41;;;;;;;;;;;4.50;99.90;;;;;;5075242;28;19916;-86
2022/12/06 03:42:07;;;;;;;;;;;4.50;99.90;;;;;;5076275;28;20390;-87
2022/12/06 03:44:33;;;;;;;;;;;4.50;99.90;;;;;;5074983;28;19915;-86
2022/12/06 03:47:05;;;;;;;;;;;4.50;99.90;;;;;;5075370;28;19912;-86
2022/12/06 03:49:34;;;;;;;;;;;4.50;99.90;;;;;;5075200;28;19917;-86
2022/12/06 03:51:59;;;;;;;;;;;4.50;99.90;;;;;;5074876;28;20015;-86
2022/12/06 03:54:25;;;;;;;;;;;4.50;99.90;;;;;;5075258;28;19993;-85
2022/12/06 03:56:50;;;;;;;;;;;4.60;99.90;;;;;;5076341;28;19995;-85
2022/12/06 03:59:16;;;;;;;;;;;4.60;99.90;;;;;;5074757;28;20277;-86
2022/12/06 04:01:41;;;;;;;;;;;4.60;99.90;;;;;;5074789;28;20009;-88
2022/12/06 04:04:08;;;;;;;;;;;4.60;99.90;;;;;;5074956;28;19916;-86
2022/12/06 04:06:33;;;;;;;;;;;4.60;99.90;;;;;;5075083;28;19908;-87
2022/12/06 04:11:43;;;;;;;;;;;4.60;99.90;;;;;;5075792;28;19962;-86
2022/12/06 04:14:08;;;;;;;;;;;4.60;99.90;;;;;;5076094;28;20324;-86
2022/12/06 04:19:18;;;;;;;;;;;4.60;99.90;;;;;;5076312;28;19974;-86
2022/12/06 04:24:28;;;;;;;;;;;4.80;99.90;;;;;;5076168;28;20285;-87
2022/12/06 04:28:40;;;;;;;;;;;4.70;99.90;;;;;;5074466;28;19908;-86
2022/12/06 04:40:39;;;;;;;;;;;4.80;99.90;;;;;;5075098;28;20058;-86
2022/12/06 04:45:50;;;;;;;;;;;4.90;99.90;;;;;;5075314;28;19920;-86
2022/12/06 04:48:15;;;;;;;;;;;4.90;99.90;;;;;;5073949;28;20302;-86
2022/12/06 04:50:45;;;;;;;;;;;4.90;99.90;;;;;;5074080;28;19913;-86
2022/12/06 04:53:10;;;;;;;;;;;5.00;99.90;;;;;;5075026;28;19955;-86
2022/12/06 04:55:36;;;;;;;;;;;5.00;99.90;;;;;;5073890;28;20301;-86
2022/12/06 04:58:01;;;;;;;;;;;5.00;99.90;;;;;;5073912;28;19908;-86
2022/12/06 05:00:27;;;;;;;;;;;5.00;99.90;;;;;;5073745;28;19962;-86
2022/12/06 05:02:52;;;;;;;;;;;5.00;99.90;;;;;;5073472;28;20353;-86
2022/12/06 05:05:18;;;;;;;;;;;5.10;99.90;;;;;;5075058;28;19919;-86
2022/12/06 05:07:43;;;;;;;;;;;5.00;99.90;;;;;;5073596;28;19956;-86
2022/12/06 05:10:09;;;;;;;;;;;4.90;99.90;;;;;;5073479;28;19912;-86
2022/12/06 05:12:34;;;;;;;;;;;5.00;99.90;;;;;;5074639;28;19951;-86
2022/12/06 05:15:00;;;;;;;;;;;4.90;99.90;;;;;;5073569;28;20380;-86
2022/12/06 05:17:25;;;;;;;;;;;5.00;99.90;;;;;;5073538;28;19908;-86
2022/12/06 05:19:50;;;;;;;;;;;5.10;99.90;;;;;;5073679;28;19961;-86
2022/12/06 05:22:16;;;;;;;;;;;5.10;99.90;;;;;;5074521;28;19915;-86
2022/12/06 05:24:41;;;;;;;;;;;5.00;99.90;;;;;;5073293;28;20353;-87
2022/12/06 05:27:07;;;;;;;;;;;5.10;99.90;;;;;;5073257;28;19909;-86
2022/12/06 05:29:32;;;;;;;;;;;5.10;99.90;;;;;;5073042;28;19909;-86
2022/12/06 05:31:58;;;;;;;;;;;5.10;99.90;;;;;;5072777;28;19923;-87
2022/12/06 05:34:23;;;;;;;;;;;5.10;99.90;;;;;;5074543;28;20273;-86
2022/12/06 05:36:49;;;;;;;;;;;5.20;99.90;;;;;;5073018;28;19913;-86
2022/12/06 05:39:15;;;;;;;;;;;5.20;99.90;;;;;;5072846;28;20006;-87
2022/12/06 05:41:41;;;;;;;;;;;5.20;99.90;;;;;;5072562;28;20004;-87
2022/12/06 05:44:08;;;;;;;;;;;5.10;99.90;;;;;;5074053;28;19948;-85
2022/12/06 05:46:33;;;;;;;;;;;5.10;99.90;;;;;;5073277;28;20431;-85
2022/12/06 05:48:59;;;;;;;;;;;5.20;99.90;;;;;;5074771;28;19909;-84
2022/12/06 05:51:24;;;;;;;;;;;5.20;99.90;;;;;;5073591;28;19912;-85
2022/12/06 05:53:49;;;;;;;;;;;5.20;99.90;;;;;;5073347;28;19909;-84
2022/12/06 05:56:15;;;;;;;;;;;5.20;99.90;;;;;;5073407;28;19909;-85
2022/12/06 05:58:40;;;;;;;;;;;5.30;99.90;;;;;;5073571;28;19912;-84
2022/12/06 06:01:06;;;;;;;;;;;5.10;99.90;;;;;;5073238;28;19915;-86
2022/12/06 06:03:32;;;;;;;;;;;5.10;99.90;;;;;;5074595;28;20491;-86
2022/12/06 06:05:59;;;;;;;;;;;5.20;99.90;;;;;;5073319;28;20380;-85
2022/12/06 06:08:25;;;;;;;;;;;5.20;99.90;;;;;;5073002;28;19924;-84
2022/12/06 06:10:50;;;;;;;;;;;5.10;99.90;;;;;;5073344;28;19912;-86
2022/12/06 06:13:15;;;;;;;;;;;5.10;99.90;;;;;;5073015;28;19915;-85
2022/12/06 06:15:41;;;;;;;;;;;5.10;99.90;;;;;;5073277;28;19909;-85
2022/12/06 06:18:06;;;;;;;;;;;5.20;99.90;;;;;;5072971;28;19915;-85
2022/12/06 06:20:32;;;;;;;;;;;5.20;99.90;;;;;;5073035;28;20007;-85
2022/12/06 06:22:57;;;;;;;;;;;5.30;99.90;;;;;;5074146;28;19916;-85
2022/12/06 06:25:23;;;;;;;;;;;5.20;99.90;;;;;;5074609;28;19908;-85
2022/12/06 06:27:48;;;;;;;;;;;5.30;99.90;;;;;;5072925;28;19916;-85
2022/12/06 06:30:14;;;;;;;;;;;5.30;99.90;;;;;;5074081;28;19978;-85
2022/12/06 06:32:40;;;;;;;;;;;5.30;99.90;;;;;;5073883;28;19913;-85
2022/12/06 06:35:06;;;;;;;;;;;5.20;99.90;;;;;;5073013;28;19908;-85
2022/12/06 06:37:31;;;;;;;;;;;5.10;99.90;;;;;;5072669;28;19957;-85
2022/12/06 06:39:57;;;;;;;;;;;5.10;99.90;;;;;;5072775;28;19908;-85
2022/12/06 06:42:23;;;;;;;;;;;5.10;99.90;;;;;;5073927;28;19916;-86
2022/12/06 06:44:48;;;;;;;;;;;5.10;99.90;;;;;;5072627;28;19955;-85
2022/12/06 06:47:13;;;;;;;;;;;5.10;99.90;;;;;;5073981;28;20008;-85
2022/12/06 06:49:40;;;;;;;;;;;5.00;99.90;;;;;;5072429;28;19923;-85
2022/12/06 06:52:05;;;;;;;;;;;5.00;99.90;;;;;;5072354;28;19913;-85
2022/12/06 06:54:31;;;;;;;;;;;5.10;99.90;;;;;;5072518;28;20274;-87
2022/12/06 06:56:56;;;;;;;;;;;5.20;99.90;;;;;;5072721;28;19959;-84
2022/12/06 06:59:22;;;;;;;;;;;5.20;99.90;;;;;;5073538;28;20358;-85
2022/12/06 07:01:48;;;;;;;;;;;5.10;99.90;;;;;;5072011;28;20409;-85
2022/12/06 07:04:13;;;;;;;;;;;5.20;99.90;;;;;;5072751;28;20007;-85
2022/12/06 07:06:39;;;;;;;;;;;5.20;99.90;;;;;;5072601;28;19909;-84
2022/12/06 07:09:05;;;;;;;;;;;5.10;99.90;;;;;;5072168;28;20271;-84
2022/12/06 07:11:30;;;;;;;;;;;5.20;99.90;;;;;;5072051;28;20360;-85
2022/12/06 07:13:55;;;;;;;;;;;5.30;99.90;;;;;;5073504;28;19908;-86
2022/12/06 07:16:21;;;;;;;;;;;5.30;99.90;;;;;;5072297;28;20354;-84
2022/12/06 07:18:46;;;;;;;;;;;5.30;99.90;;;;;;5072382;28;19909;-85
2022/12/06 07:21:13;;;;;;;;;;;5.30;99.90;;;;;;5071987;28;19916;-84
2022/12/06 07:23:38;;;;;;;;;;;5.30;99.90;;;;;;5072078;28;19913;-85
2022/12/06 07:26:05;;;;;;;;;;;5.30;99.90;;;;;;5072170;28;20388;-85
2022/12/06 07:28:32;;;;;;;;;;;5.40;99.90;;;;;;5072167;28;20395;-85
2022/12/06 07:30:57;;;;;;;;;;;5.40;99.90;;;;;;5072142;28;19913;-84
2022/12/06 07:33:23;;;;;;;;;;;5.50;99.90;;;;;;5072111;28;19908;-85
2022/12/06 07:35:52;;;;;;;;;;;5.50;99.90;;;;;;5072148;28;19908;-84
2022/12/06 07:38:18;;;;;;;;;;;5.50;99.90;;;;;;5071942;28;19909;-84
2022/12/06 07:40:43;;;;;;;;;;;5.50;99.90;;;;;;5071977;28;20432;-84
2022/12/06 07:45:53;;;;;;;;;;;5.50;99.90;;;;;;5073567;28;19915;-85
2022/12/06 07:48:19;;;;;;;;;;;5.60;99.90;;;;;;5071802;28;19912;-86
2022/12/06 07:50:46;;;;;;;;;;;5.60;99.90;;;;;;5071860;28;20315;-85
2022/12/06 07:53:11;;;;;;;;;;;5.60;99.90;;;;;;5071734;28;19908;-85
2022/12/06 07:55:37;;;;;;;;;;;5.60;99.90;;;;;;5071750;28;20324;-85
2022/12/06 07:58:02;;;;;;;;;;;5.60;99.90;;;;;;5071762;28;19909;-85
2022/12/06 08:00:28;;;;;;;;;;;5.70;99.90;;;;;;5071680;28;19959;-85
2022/12/06 08:02:53;;;;;;;;;;;5.80;99.90;;;;;;5071378;28;19909;-85
2022/12/06 08:05:18;;;;;;;;;;;5.80;99.90;;;;;;5071546;28;19908;-84
2022/12/06 08:07:44;;;;;;;;;;;5.80;99.90;;;;;;5072981;28;19999;-84
2022/12/06 08:10:09;;;;;;;;;;;5.90;99.90;;;;;;5071702;28;19912;-85
2022/12/06 08:12:35;;;;;;;;;;;5.90;99.90;;;;;;5072567;28;19955;-86
2022/12/06 08:15:01;;;;;;;;;;;5.90;99.90;;;;;;5073751;28;19999;-85
2022/12/06 08:17:26;;;;;;;;;;;5.90;99.90;;;;;;5075231;28;19962;-85
2022/12/06 08:19:52;;;;;;;;;;;5.90;99.90;;;;;;5075123;28;19944;-85
2022/12/06 08:22:17;;;;;;;;;;;5.90;99.90;;;;;;5075099;28;19966;-85
2022/12/06 08:24:43;;;;;;;;;;;6.00;99.90;;;;;;5075027;28;19908;-88
2022/12/06 08:27:08;;;;;;;;;;;6.00;99.90;;;;;;5075696;28;19935;-88
2022/12/06 08:29:34;;;;;;;;;;;6.10;99.90;;;;;;5074331;28;20362;-87
2022/12/06 08:31:59;;;;;;;;;;;6.10;99.90;;;;;;5074005;28;19912;-89
2022/12/06 08:34:25;;;;;;;;;;;6.10;99.90;;;;;;5074514;28;19909;-88
2022/12/06 08:36:50;;;;;;;;;;;6.10;99.90;;;;;;5074301;28;19956;-87
2022/12/06 08:39:16;;;;;;;;;;;6.20;99.90;;;;;;5081090;28;19904;-83
2022/12/06 08:41:57;;;;;;;;;;;6.20;99.90;;;;;;5099829;28;19979;-84
2022/12/06 08:44:23;;;;;;;;;;;6.30;99.90;;;;;;5076760;28;19920;-88
2022/12/06 08:46:49;;;;;;;;;;;6.30;99.90;;;;;;5074160;28;19909;-88
2022/12/06 08:49:15;;;;;;;;;;;6.40;99.90;;;;;;5073973;28;20370;-88
2022/12/06 08:51:41;;;;;;;;;;;6.40;99.90;;;;;;5073644;28;20042;-87
2022/12/06 08:54:07;;;;;;;;;;;6.40;99.90;;;;;;5073910;28;20391;-87
2022/12/06 08:56:33;;;;;;;;;;;6.30;99.90;;;;;;5075073;28;19909;-87
2022/12/06 08:58:58;;;;;;;;;;;6.40;99.90;;;;;;5074995;28;19934;-87
2022/12/06 09:01:26;;;;;;;;;;;6.30;99.90;;;;;;5073394;28;19994;-88
2022/12/06 09:03:52;;;;;;;;;;;6.20;99.90;;;;;;5075001;28;19962;-86
2022/12/06 09:06:17;;;;;;;;;;;6.20;99.90;;;;;;5073690;28;19943;-86
2022/12/06 09:08:43;;;;;;;;;;;6.30;99.90;;;;;;5074099;28;19916;-85
2022/12/06 09:11:09;;;;;;;;;;;6.20;99.90;;;;;;5074165;28;19955;-85
2022/12/06 09:13:35;;;;;;;;;;;6.30;99.90;;;;;;5075375;28;19915;-85
2022/12/06 09:16:09;;;;;;;;;;;6.30;99.90;;;;;;5068877;28;20286;-87
2022/12/06 09:18:35;;;;;;;;;;;6.30;99.90;;;;;;5072982;28;19913;-87
2022/12/06 09:21:08;;;;;;;;;;;6.30;99.90;;;;;;5072502;28;20591;-87
2022/12/06 09:23:34;;;;;;;;;;;6.30;99.90;;;;;;5073146;28;19909;-88
2022/12/06 09:26:00;;;;;;;;;;;6.30;99.90;;;;;;5072938;28;19908;-88
2022/12/06 09:28:25;;;;;;;;;;;6.40;99.90;;;;;;5071903;28;20372;-86
2022/12/06 09:30:51;;;;;;;;;;;6.50;99.90;;;;;;5072715;28;19989;-85
2022/12/06 09:33:16;;;;;;;;;;;6.50;99.90;;;;;;5072459;28;19908;-87
2022/12/06 09:35:42;;;;;;;;;;;6.60;99.90;;;;;;5071631;28;19909;-87
2022/12/06 09:38:08;;;;;;;;;;;6.50;99.90;;;;;;5072242;28;20369;-88
2022/12/06 09:40:37;;;;;;;;;;;6.40;99.90;;;;;;5072655;28;19962;-87
2022/12/06 09:43:20;;;;;;;;;;;6.50;99.90;;;;;;5072569;28;19909;-88
2022/12/06 09:45:54;;;;;;;;;;;6.50;99.90;;;;;;5072364;28;19915;-88
2022/12/06 09:48:20;;;;;;;;;;;6.60;99.90;;;;;;5072686;28;19909;-87
2022/12/06 09:50:46;;;;;;;;;;;6.60;99.90;;;;;;5072521;28;20023;-89
2022/12/06 09:53:21;;;;;;;;;;;6.60;99.90;;;;;;5072648;28;19912;-88
2022/12/06 09:55:46;;;;;;;;;;;6.60;99.90;;;;;;5072453;28;19909;-88
2022/12/06 09:58:37;;;;;;;;;;;6.60;99.90;;;;;;5072178;28;20255;-86
2022/12/06 10:01:17;;;;;;;;;;;6.50;99.90;;;;;;5072028;28;19958;-87
2022/12/06 10:04:22;;;;;;;;;;;6.50;99.90;;;;;;5073583;28;19909;-88
2022/12/06 10:07:10;;;;;;;;;;;6.50;99.90;;;;;;5014042;28;20003;-87
2022/12/06 10:09:54;;;;;;;;;;;6.60;99.90;;;;;;5014430;28;20366;-87
2022/12/06 10:12:40;;;;;;;;;;;6.70;99.90;;;;;;5014099;28;20071;-87
2022/12/06 10:15:22;;;;;;;;;;;6.70;99.90;;;;;;5014595;28;19915;-87
2022/12/06 10:17:51;;;;;;;;;;;6.70;99.90;;;;;;5031316;28;19908;-87
2022/12/06 10:20:35;;;;;;;;;;;6.80;99.90;;;;;;5072140;28;19909;-88
2022/12/06 10:23:19;;;;;;;;;;;6.80;99.90;;;;;;5071313;28;20274;-88
2022/12/06 10:25:52;;;;;;;;;;;6.90;99.90;;;;;;5070997;28;20122;-88
2022/12/06 10:28:26;;;;;;;;;;;6.90;99.90;;;;;;5071784;28;19908;-87
2022/12/06 10:31:14;;;;;;;;;;;6.90;99.90;;;;;;5071422;28;19967;-87
2022/12/06 10:33:55;;;;;;;;;;;6.90;99.90;;;;;;5071348;28;19908;-86
2022/12/06 10:36:26;;;;;;;;;;;6.90;99.90;;;;;;5071835;28;19908;-87
2022/12/06 10:38:54;;;;;;;;;;;6.90;99.90;;;;;;5071385;28;20277;-88
2022/12/06 10:41:38;;;;;;;;;;;7.00;99.90;;;;;;5071209;28;19909;-86
2022/12/06 10:44:06;;;;;;;;;;;7.00;99.90;;;;;;5072347;28;19916;-86
2022/12/06 10:49:34;;;;;;;;;;;6.90;99.90;;;;;;5072516;28;19915;-86
2022/12/06 10:52:21;;;;;;;;;;;6.90;99.90;;;;;;5070992;28;20557;-86
2022/12/06 10:55:02;;;;;;;;;;;6.90;99.90;;;;;;5072660;28;20429;-87
2022/12/06 10:57:37;;;;;;;;;;;6.90;99.90;;;;;;5069543;28;20375;-86
2022/12/06 11:00:06;;;;;;;;;;;6.90;99.90;;;;;;5055103;28;19908;-87
2022/12/06 11:02:40;;;;;;;;;;;6.90;99.90;;;;;;5071112;28;19914;-86
2022/12/06 11:05:14;;;;;;;;;;;7.00;99.90;;;;;;5071268;28;19947;-86
2022/12/06 11:07:42;;;;;;;;;;;7.00;99.90;;;;;;5071283;28;20391;-86
2022/12/06 11:10:22;;;;;;;;;;;6.90;99.90;;;;;;5071668;28;19919;-86
2022/12/06 11:12:48;;;;;;;;;;;6.90;99.90;;;;;;5067936;28;20263;-88
2022/12/06 11:15:16;;;;;;;;;;;6.90;99.90;;;;;;5070864;28;19914;-88
2022/12/06 11:17:43;;;;;;;;;;;6.90;99.90;;;;;;5071285;28;19914;-88
2022/12/06 11:20:14;;;;;;;;;;;7.00;99.90;;;;;;5071444;28;19939;-87
2022/12/06 11:22:43;;;;;;;;;;;6.90;99.90;;;;;;5070955;28;20417;-87
2022/12/06 11:25:08;;;;;;;;;;;6.80;99.90;;;;;;5071251;28;19913;-87
2022/12/06 11:27:39;;;;;;;;;;;6.90;99.90;;;;;;5071106;28;19908;-88
2022/12/06 11:30:12;;;;;;;;;;;6.90;99.90;;;;;;5071398;28;20366;-87
2022/12/06 11:32:38;;;;;;;;;;;6.90;99.90;;;;;;5071009;28;19970;-87
2022/12/06 11:35:04;;;;;;;;;;;6.90;99.90;;;;;;5072263;28;19908;-87
2022/12/06 11:37:32;;;;;;;;;;;7.00;99.90;;;;;;5071071;28;19908;-87
2022/12/06 11:40:04;;;;;;;;;;;7.00;99.90;;;;;;5071126;28;19916;-87
2022/12/06 11:42:29;;;;;;;;;;;6.90;99.90;;;;;;5070925;28;20376;-87
2022/12/06 11:45:04;;;;;;;;;;;7.00;99.90;;;;;;5071075;28;19966;-86
2022/12/06 11:47:30;;;;;;;;;;;6.90;99.90;;;;;;5071028;28;19936;-87
2022/12/06 11:49:56;;;;;;;;;;;7.00;99.90;;;;;;5073085;28;19915;-86
2022/12/06 11:52:28;;;;;;;;;;;7.10;99.90;;;;;;5074578;28;19961;-86
2022/12/06 11:54:55;;;;;;;;;;;7.10;99.90;;;;;;5074889;28;19997;-86
2022/12/06 11:57:22;;;;;;;;;;;7.30;99.90;;;;;;5074710;28;20062;-87
2022/12/06 12:00:14;;;;;;;;;;;7.30;99.90;;;;;;5075711;28;19919;-87
2022/12/06 12:02:40;;;;;;;;;;;7.30;99.90;;;;;;5071215;28;19909;-86
2022/12/06 12:05:12;;;;;;;;;;;7.40;99.90;;;;;;5074734;28;19916;-87
2022/12/06 12:07:39;;;;;;;;;;;7.30;99.90;;;;;;5074555;28;19934;-87
2022/12/06 12:10:22;;;;;;;;;;;7.20;99.90;;;;;;5074626;28;19916;-87
2022/12/06 12:15:32;;;;;;;;;;;7.30;99.90;;;;;;5076085;28;19916;-86
2022/12/06 12:17:59;;;;;;;;;;;7.20;99.90;;;;;;5074495;28;20016;-87
2022/12/06 12:20:29;;;;;;;;;;;7.30;99.90;;;;;;5074525;28;19954;-87
2022/12/06 12:22:59;;;;;;;;;;;7.30;99.90;;;;;;5074065;28;19909;-87
2022/12/06 12:25:26;;;;;;;;;;;7.40;99.90;;;;;;5074445;28;20022;-87
2022/12/06 12:27:53;;;;;;;;;;;7.50;99.90;;;;;;5074231;28;20662;-89
2022/12/06 12:30:18;;;;;;;;;;;7.60;99.90;;;;;;5074450;28;20328;-86
2022/12/06 12:32:45;;;;;;;;;;;7.70;99.90;;;;;;5074544;28;19912;-85
2022/12/06 12:35:19;;;;;;;;;;;7.70;99.90;;;;;;5074839;28;19914;-87
2022/12/06 12:37:46;;;;;;;;;;;7.70;99.90;;;;;;5075825;28;19912;-86
2022/12/06 12:40:21;;;;;;;;;;;7.60;99.90;;;;;;5074935;28;19908;-86
2022/12/06 12:42:46;;;;;;;;;;;7.60;99.90;;;;;;5074911;28;19961;-87
2022/12/06 12:45:17;;;;;;;;;;;7.70;99.90;;;;;;5071219;28;19909;-86
2022/12/06 12:47:54;;;;;;;;;;;7.70;99.90;;;;;;5075711;28;19913;-86
2022/12/06 12:50:22;;;;;;;;;;;7.70;99.90;;;;;;5075528;28;19909;-87
2022/12/06 12:52:48;;;;;;;;;;;7.70;99.90;;;;;;5074221;28;19916;-86
2022/12/06 12:55:14;;;;;;;;;;;7.70;99.90;;;;;;5074407;28;19909;-87
2022/12/06 12:57:44;;;;;;;;;;;7.80;99.90;;;;;;5074118;28;20003;-86
2022/12/06 13:00:13;;;;;;;;;;;7.70;99.90;;;;;;5074965;28;19908;-86
2022/12/06 13:02:40;;;;;;;;;;;7.70;99.90;;;;;;5074233;28;20366;-86
2022/12/06 13:05:15;;;;;;;;;;;7.60;99.90;;;;;;5074300;28;19908;-86
2022/12/06 13:07:41;;;;;;;;;;;7.60;99.90;;;;;;5075125;28;19986;-87
2022/12/06 13:10:07;;;;;;;;;;;7.80;99.90;;;;;;5074238;28;20358;-86
2022/12/06 13:12:43;;;;;;;;;;;7.90;99.90;;;;;;5073947;28;19978;-86
2022/12/06 13:15:21;;;;;;;;;;;7.80;99.90;;;;;;5069877;28;19909;-86
2022/12/06 13:17:49;;;;;;;;;;;7.90;99.90;;;;;;5066450;28;20373;-86
2022/12/06 13:20:25;;;;;;;;;;;8.10;99.90;;;;;;5074626;28;19934;-85
2022/12/06 13:22:53;;;;;;;;;;;8.10;99.90;;;;;;5073515;28;19909;-85
2022/12/06 13:25:18;;;;;;;;;;;8.40;99.90;;;;;;5073725;28;19919;-85
2022/12/06 13:27:46;;;;;;;;;;;9.00;99.90;;;;;;5073552;28;20362;-85
2022/12/06 13:30:12;;;;;;;;;;;9.60;99.90;;;;;;5073497;28;19912;-86
2022/12/06 13:32:41;;;;;;;;;;;9.60;99.90;;;;;;5073159;28;20435;-84
2022/12/06 13:35:22;;;;;;;;;;;9.30;99.90;;;;;;5073471;28;20424;-85
2022/12/06 13:38:23;;;;;;;;;;;9.10;99.90;;;;;;5073308;28;19999;-85
2022/12/06 13:41:13;;;;;;;;;;;9.00;99.90;;;;;;5073727;28;19916;-86
2022/12/06 13:43:51;;;;;;;;;;;8.70;99.90;;;;;;5073498;28;19991;-86
2022/12/06 13:46:25;;;;;;;;;;;8.70;99.90;;;;;;5073507;28;19999;-86
2022/12/06 13:48:51;;;;;;;;;;;8.70;99.90;;;;;;5073590;28;19913;-86
2022/12/06 13:51:36;;;;;;;;;;;8.90;99.90;;;;;;5073567;28;19913;-86
2022/12/06 13:54:11;;;;;;;;;;;8.80;99.90;;;;;;5073989;28;19908;-86
2022/12/06 13:56:38;;;;;;;;;;;8.60;99.90;;;;;;5074803;28;19930;-86
2022/12/06 13:59:23;;;;;;;;;;;8.60;99.90;;;;;;5074092;28;19912;-86
2022/12/06 14:01:49;;;;;;;;;;;8.40;99.90;;;;;;5072670;28;19931;-86
2022/12/06 14:04:24;;;;;;;;;;;8.20;99.90;;;;;;5074657;28;19909;-86
2022/12/06 14:06:54;;;;;;;;;;;8.00;99.90;;;;;;5073158;28;19908;-86
2022/12/06 14:09:22;;;;;;;;;;;7.70;99.90;;;;;;5072746;28;19959;-86
2022/12/06 14:11:52;;;;;;;;;;;7.60;99.90;;;;;;5071810;28;20283;-86
2022/12/06 14:14:29;;;;;;;;;;;7.50;99.90;;;;;;5072669;28;19939;-86
2022/12/06 14:16:57;;;;;;;;;;;7.40;99.90;;;;;;5060827;28;20366;-84
2022/12/06 14:19:28;;;;;;;;;;;7.20;99.90;;;;;;5053238;28;19916;-84
2022/12/06 14:22:01;;;;;;;;;;;7.20;99.90;;;;;;5053072;28;19909;-84
2022/12/06 14:24:29;;;;;;;;;;;7.10;99.90;;;;;;5053317;28;19931;-85
2022/12/06 14:27:01;;;;;;;;;;;7.00;99.90;;;;;;5053815;28;19909;-85
2022/12/06 14:29:27;;;;;;;;;;;6.90;99.90;;;;;;5054225;28;19916;-85
2022/12/06 14:31:52;;;;;;;;;;;6.70;99.90;;;;;;5062265;28;19896;-86
2022/12/06 14:34:25;;;;;;;;;;;6.70;99.90;;;;;;5053126;28;19912;-86
2022/12/06 14:36:51;;;;;;;;;;;6.60;99.90;;;;;;5053042;28;20007;-86
2022/12/06 14:39:18;;;;;;;;;;;6.50;99.90;;;;;;5052893;28;19916;-85
2022/12/06 14:45:13;;;;;;;;;;;6.50;99.90;;;;;;5012230;28;19932;-86
2022/12/06 14:47:39;;;;;;;;;;;6.50;99.90;;;;;;4996301;28;20433;-86
2022/12/06 14:50:23;;;;;;;;;;;6.50;99.90;;;;;;5031182;28;19913;-86
2022/12/06 14:52:57;;;;;;;;;;;6.60;99.90;;;;;;5053271;28;19952;-85
2022/12/06 14:55:23;;;;;;;;;;;6.70;99.90;;;;;;5053592;28;19999;-86
2022/12/06 14:57:53;;;;;;;;;;;6.80;99.90;;;;;;5053112;28;19958;-85
2022/12/06 15:00:20;;;;;;;;;;;6.90;99.90;;;;;;5052893;28;19920;-86
2022/12/06 15:03:04;;;;;;;;;;;6.90;99.90;;;;;;5052792;28;19959;-86
2022/12/06 15:05:34;;;;;;;;;;;7.00;99.90;;;;;;5052572;28;19909;-86
2022/12/06 15:08:16;;;;;;;;;;;7.00;99.90;;;;;;5053005;28;19913;-87
2022/12/06 15:10:52;;;;;;;;;;;7.00;99.90;;;;;;5051480;28;19909;-88
2022/12/06 15:13:17;;;;;;;;;;;7.00;99.90;;;;;;5051516;28;19912;-88
2022/12/06 15:15:44;;;;;;;;;;;7.00;99.90;;;;;;5051350;28;19916;-87